createdAt,value
2018-01-30T00:00:22.556Z,4.80
2018-01-30T00:02:49.211Z,4.80
2018-01-30T00:05:15.773Z,4.80
2018-01-30T00:07:42.364Z,4.80
2018-01-30T00:10:12.197Z,4.80
2018-01-30T00:12:38.826Z,4.90
2018-01-30T00:15:05.427Z,4.80
2018-01-30T00:17:32.802Z,4.80
2018-01-30T00:19:59.460Z,4.80
2018-01-30T00:22:39.110Z,4.80
2018-01-30T00:25:05.704Z,4.80
2018-01-30T00:27:40.940Z,4.80
2018-01-30T00:30:07.945Z,4.80
2018-01-30T00:32:34.547Z,4.80
2018-01-30T00:35:01.220Z,4.80
2018-01-30T00:37:27.925Z,4.80
2018-01-30T00:39:54.526Z,4.90
2018-01-30T00:42:21.148Z,4.90
2018-01-30T00:44:47.760Z,4.90
2018-01-30T00:47:14.357Z,4.90
2018-01-30T00:49:40.973Z,4.90
2018-01-30T00:52:07.626Z,4.90
2018-01-30T00:54:34.621Z,4.90
2018-01-30T00:57:01.253Z,4.80
2018-01-30T00:59:27.889Z,4.80
2018-01-30T01:01:54.490Z,4.80
2018-01-30T01:04:21.509Z,4.80
2018-01-30T01:06:48.128Z,4.80
2018-01-30T01:09:14.767Z,4.80
2018-01-30T01:11:42.428Z,4.70
2018-01-30T01:14:09.069Z,4.70
2018-01-30T01:16:35.657Z,4.80
2018-01-30T01:19:02.262Z,4.80
2018-01-30T01:21:28.856Z,4.80
2018-01-30T01:23:55.453Z,4.80
2018-01-30T01:26:22.077Z,4.80
2018-01-30T01:28:48.677Z,4.80
2018-01-30T01:31:15.262Z,4.80
2018-01-30T01:33:43.255Z,4.80
2018-01-30T01:36:09.872Z,4.80
2018-01-30T01:38:36.830Z,4.80
2018-01-30T01:41:03.843Z,4.80
2018-01-30T01:43:30.416Z,4.80
2018-01-30T01:45:57.376Z,4.80
2018-01-30T01:48:41.228Z,4.80
2018-01-30T01:51:07.834Z,4.80
2018-01-30T01:53:34.813Z,4.80
2018-01-30T01:56:01.757Z,4.80
2018-01-30T01:58:28.418Z,4.80
2018-01-30T02:00:54.999Z,4.80
2018-01-30T02:03:22.288Z,4.80
2018-01-30T02:05:48.913Z,4.80
2018-01-30T02:08:15.545Z,4.70
2018-01-30T02:10:42.210Z,4.60
2018-01-30T02:13:08.797Z,4.60
2018-01-30T02:15:35.788Z,4.50
2018-01-30T02:18:07.353Z,4.50
2018-01-30T02:20:34.015Z,4.40
2018-01-30T02:23:00.638Z,4.40
2018-01-30T02:25:27.530Z,4.40
2018-01-30T02:27:54.491Z,4.40
2018-01-30T02:30:21.077Z,4.40
2018-01-30T02:32:52.462Z,4.30
2018-01-30T02:35:19.458Z,4.30
2018-01-30T02:37:46.050Z,4.30
2018-01-30T02:40:12.681Z,4.30
2018-01-30T02:42:39.662Z,4.30
2018-01-30T02:45:06.319Z,4.20
2018-01-30T02:47:32.902Z,4.20
2018-01-30T02:49:59.957Z,4.20
2018-01-30T02:52:26.978Z,4.20
2018-01-30T02:54:53.575Z,4.20
2018-01-30T02:57:20.204Z,4.20
2018-01-30T02:59:50.158Z,4.20
2018-01-30T03:02:16.807Z,4.20
2018-01-30T03:04:43.424Z,4.10
2018-01-30T03:07:10.426Z,4.10
2018-01-30T03:09:37.416Z,4.10
2018-01-30T03:12:04.033Z,4.10
2018-01-30T03:14:32.681Z,4.00
2018-01-30T03:16:59.652Z,4.00
2018-01-30T03:19:26.575Z,4.00
2018-01-30T03:21:53.580Z,4.00
2018-01-30T03:24:20.208Z,4.00
2018-01-30T03:26:46.870Z,4.00
2018-01-30T03:29:13.502Z,4.00
2018-01-30T03:31:40.157Z,4.00
2018-01-30T03:34:06.810Z,4.00
2018-01-30T03:36:33.845Z,3.90
2018-01-30T03:39:00.907Z,4.00
2018-01-30T03:41:28.168Z,4.00
2018-01-30T03:43:54.766Z,4.00
2018-01-30T03:46:21.393Z,4.00
2018-01-30T03:48:48.346Z,4.00
2018-01-30T03:51:14.959Z,4.00
2018-01-30T03:53:41.535Z,4.00
2018-01-30T03:56:08.605Z,4.00
2018-01-30T03:58:35.558Z,4.00
2018-01-30T04:01:02.161Z,4.00
2018-01-30T04:03:49.300Z,3.90
2018-01-30T04:06:16.305Z,3.90
2018-01-30T04:08:42.899Z,3.90
2018-01-30T04:11:09.524Z,3.90
2018-01-30T04:13:36.487Z,3.90
2018-01-30T04:16:03.075Z,3.90
2018-01-30T04:18:29.707Z,3.90
2018-01-30T04:20:56.349Z,3.90
2018-01-30T04:23:22.963Z,3.90
2018-01-30T04:25:49.993Z,3.90
2018-01-30T04:28:16.596Z,3.90
2018-01-30T04:30:43.218Z,3.90
2018-01-30T04:33:09.849Z,3.90
2018-01-30T04:35:36.433Z,3.90
2018-01-30T04:38:04.018Z,3.80
2018-01-30T04:40:30.662Z,3.80
2018-01-30T04:42:57.266Z,3.80
2018-01-30T04:45:23.868Z,3.80
2018-01-30T04:47:50.503Z,3.70
2018-01-30T04:50:17.061Z,3.70
2018-01-30T04:52:44.082Z,3.70
2018-01-30T04:55:10.697Z,3.70
2018-01-30T04:57:37.360Z,3.70
2018-01-30T05:00:07.485Z,3.70
2018-01-30T05:02:35.155Z,3.70
2018-01-30T05:05:01.770Z,3.60
2018-01-30T05:07:28.409Z,3.60
2018-01-30T05:09:55.025Z,3.60
2018-01-30T05:12:21.629Z,3.60
2018-01-30T05:14:48.701Z,3.60
2018-01-30T05:17:15.286Z,3.60
2018-01-30T05:19:42.051Z,3.60
2018-01-30T05:22:09.083Z,3.50
2018-01-30T05:24:36.002Z,3.50
2018-01-30T05:27:21.409Z,3.50
2018-01-30T05:29:48.003Z,3.60
2018-01-30T05:32:14.672Z,3.60
2018-01-30T05:34:41.374Z,3.50
2018-01-30T05:37:07.945Z,3.50
2018-01-30T05:39:34.548Z,3.50
2018-01-30T05:42:02.205Z,3.40
2018-01-30T05:44:28.881Z,3.40
2018-01-30T05:46:55.436Z,3.40
2018-01-30T05:49:22.116Z,3.50
2018-01-30T05:51:48.718Z,3.60
2018-01-30T05:54:15.711Z,3.60
2018-01-30T05:59:34.645Z,3.60
2018-01-30T06:02:01.651Z,3.60
2018-01-30T06:04:28.259Z,3.50
2018-01-30T06:06:54.883Z,3.50
2018-01-30T06:09:21.507Z,3.50
2018-01-30T06:11:48.533Z,3.50
2018-01-30T06:14:15.165Z,3.60
2018-01-30T06:16:42.161Z,3.60
2018-01-30T06:19:08.773Z,3.70
2018-01-30T06:21:35.418Z,3.80
2018-01-30T06:24:02.563Z,3.80
2018-01-30T06:26:29.571Z,3.80
2018-01-30T06:28:56.226Z,3.60
2018-01-30T06:31:23.097Z,3.60
2018-01-30T06:33:54.852Z,3.60
2018-01-30T06:36:21.845Z,3.40
2018-01-30T06:38:48.465Z,3.40
2018-01-30T06:41:15.111Z,3.40
2018-01-30T06:43:41.702Z,3.30
2018-01-30T06:46:08.351Z,3.30
2018-01-30T06:51:27.276Z,3.30
2018-01-30T06:53:53.893Z,3.30
2018-01-30T06:56:20.512Z,3.30
2018-01-30T06:58:47.193Z,3.30
2018-01-30T07:01:13.827Z,3.20
2018-01-30T07:03:40.430Z,3.20
2018-01-30T07:06:07.135Z,3.20
2018-01-30T07:08:33.723Z,3.20
2018-01-30T07:11:00.295Z,3.20
2018-01-30T07:13:26.963Z,3.30
2018-01-30T07:15:53.572Z,3.20
2018-01-30T07:18:20.194Z,3.20
2018-01-30T07:20:46.880Z,3.20
2018-01-30T07:23:13.935Z,3.10
2018-01-30T07:25:40.898Z,3.10
2018-01-30T07:28:07.522Z,3.10
2018-01-30T07:30:34.639Z,3.10
2018-01-30T07:33:01.222Z,3.10
2018-01-30T07:35:31.712Z,3.10
2018-01-30T07:38:00.337Z,3.10
2018-01-30T07:40:26.927Z,3.10
2018-01-30T07:42:53.559Z,3.10
2018-01-30T07:45:20.634Z,3.10
2018-01-30T07:47:47.634Z,3.10
2018-01-30T07:50:14.281Z,3.10
2018-01-30T07:52:41.026Z,3.10
2018-01-30T07:55:07.662Z,3.10
2018-01-30T07:57:34.257Z,3.10
2018-01-30T08:00:00.947Z,3.10
2018-01-30T08:02:27.601Z,3.20
2018-01-30T08:04:54.234Z,3.20
2018-01-30T08:07:20.932Z,3.20
2018-01-30T08:09:47.531Z,3.20
2018-01-30T08:12:14.522Z,3.30
2018-01-30T08:14:41.151Z,3.30
2018-01-30T08:17:07.775Z,3.30
2018-01-30T08:19:34.386Z,3.30
2018-01-30T08:22:01.453Z,3.30
2018-01-30T08:24:28.777Z,3.40
2018-01-30T08:26:55.399Z,3.40
2018-01-30T08:29:22.311Z,3.40
2018-01-30T08:31:48.969Z,3.40
2018-01-30T08:34:15.604Z,3.50
2018-01-30T08:36:42.257Z,3.50
2018-01-30T08:39:08.845Z,3.60
2018-01-30T08:41:35.458Z,3.60
2018-01-30T08:44:02.348Z,3.60
2018-01-30T08:46:28.967Z,3.70
2018-01-30T08:48:55.667Z,3.70
2018-01-30T08:51:23.110Z,3.70
2018-01-30T08:53:49.795Z,3.70
2018-01-30T08:56:16.813Z,3.80
2018-01-30T08:58:43.794Z,3.80
2018-01-30T09:01:10.421Z,3.80
2018-01-30T09:03:37.384Z,3.90
2018-01-30T09:06:04.114Z,3.90
2018-01-30T09:08:30.751Z,4.00
2018-01-30T09:10:57.754Z,4.00
2018-01-30T09:13:24.390Z,4.00
2018-01-30T09:15:50.965Z,4.10
2018-01-30T09:18:17.961Z,4.20
2018-01-30T09:20:44.841Z,4.20
2018-01-30T09:23:11.411Z,4.30
2018-01-30T09:25:38.003Z,4.30
2018-01-30T09:28:04.993Z,4.40
2018-01-30T09:30:31.634Z,4.40
2018-01-30T09:32:58.233Z,4.50
2018-01-30T09:35:25.337Z,4.60
2018-01-30T09:37:51.962Z,4.60
2018-01-30T09:40:18.563Z,4.60
2018-01-30T09:42:45.629Z,4.70
2018-01-30T09:45:29.689Z,4.70
2018-01-30T09:47:56.589Z,4.80
2018-01-30T09:50:23.192Z,4.90
2018-01-30T09:52:49.827Z,4.90
2018-01-30T09:55:16.831Z,4.90
2018-01-30T09:57:43.893Z,5.00
2018-01-30T10:00:10.568Z,5.10
2018-01-30T10:02:37.181Z,5.10
2018-01-30T10:05:03.843Z,5.20
2018-01-30T10:07:30.411Z,5.20
2018-01-30T10:09:57.056Z,5.30
2018-01-30T10:12:23.701Z,5.30
2018-01-30T10:14:50.856Z,5.30
2018-01-30T10:17:17.509Z,5.40
2018-01-30T10:19:44.525Z,5.50
2018-01-30T10:22:11.185Z,5.50
2018-01-30T10:24:38.239Z,5.60
2018-01-30T10:27:04.874Z,5.60
2018-01-30T10:29:31.887Z,5.70
2018-01-30T10:31:58.854Z,5.70
2018-01-30T10:34:25.465Z,5.70
2018-01-30T10:36:55.805Z,5.80
2018-01-30T10:39:22.442Z,5.80
2018-01-30T10:41:49.039Z,5.80
2018-01-30T10:44:15.625Z,5.90
2018-01-30T10:46:42.285Z,5.90
2018-01-30T10:49:08.958Z,5.90
2018-01-30T10:51:35.568Z,5.90
2018-01-30T10:54:02.263Z,5.80
2018-01-30T10:56:28.949Z,5.80
2018-01-30T10:58:59.194Z,5.80
2018-01-30T11:01:25.859Z,5.90
2018-01-30T11:03:52.498Z,5.90
2018-01-30T11:06:19.113Z,5.90
2018-01-30T11:08:45.797Z,5.90
2018-01-30T11:11:12.382Z,5.90
2018-01-30T11:13:39.067Z,6.00
2018-01-30T11:16:05.797Z,6.10
2018-01-30T11:18:53.667Z,6.10
2018-01-30T11:21:20.934Z,6.10
2018-01-30T11:23:47.574Z,6.20
2018-01-30T11:26:14.203Z,6.20
2018-01-30T11:28:40.911Z,6.20
2018-01-30T11:31:07.502Z,6.20
2018-01-30T11:33:34.099Z,6.30
2018-01-30T11:36:01.202Z,6.30
2018-01-30T11:38:37.989Z,6.40
2018-01-30T11:41:04.929Z,6.40
2018-01-30T11:43:31.601Z,6.40
2018-01-30T11:45:58.171Z,6.50
2018-01-30T11:48:24.832Z,6.50
2018-01-30T11:50:51.422Z,6.50
2018-01-30T11:53:18.080Z,6.60
2018-01-30T11:55:44.742Z,6.60
2018-01-30T11:58:11.300Z,6.60
2018-01-30T12:00:37.868Z,6.60
2018-01-30T12:03:04.890Z,6.60
2018-01-30T12:05:31.484Z,6.60
2018-01-30T12:07:58.096Z,6.60
2018-01-30T12:10:25.120Z,6.60
2018-01-30T12:12:51.729Z,6.60
2018-01-30T12:15:18.381Z,6.60
2018-01-30T12:17:45.074Z,6.60
2018-01-30T12:20:11.695Z,6.60
2018-01-30T12:22:38.744Z,6.60
2018-01-30T12:25:05.804Z,6.60
2018-01-30T12:27:32.763Z,6.70
2018-01-30T12:29:59.412Z,6.70
2018-01-30T12:32:26.049Z,6.80
2018-01-30T12:34:52.648Z,6.80
2018-01-30T12:37:19.651Z,6.90
2018-01-30T12:39:46.333Z,6.90
2018-01-30T12:42:12.929Z,6.90
2018-01-30T12:44:39.565Z,6.90
2018-01-30T12:47:06.611Z,6.90
2018-01-30T12:49:33.179Z,6.80
2018-01-30T12:51:59.794Z,6.80
2018-01-30T12:54:26.417Z,6.80
2018-01-30T12:56:52.991Z,6.80
2018-01-30T12:59:19.656Z,6.90
2018-01-30T13:01:51.131Z,6.90
2018-01-30T13:04:17.709Z,7.00
2018-01-30T13:06:44.354Z,7.00
2018-01-30T13:09:11.031Z,7.10
2018-01-30T13:11:37.620Z,7.00
2018-01-30T13:14:04.354Z,7.00
2018-01-30T13:16:30.919Z,7.00
2018-01-30T13:18:57.525Z,7.00
2018-01-30T13:21:24.173Z,7.00
2018-01-30T13:23:50.771Z,7.00
2018-01-30T13:26:17.363Z,7.00
2018-01-30T13:28:44.018Z,7.00
2018-01-30T13:31:11.049Z,7.00
2018-01-30T13:33:37.618Z,6.90
2018-01-30T13:36:04.249Z,7.00
2018-01-30T13:38:49.060Z,6.90
2018-01-30T13:41:16.018Z,6.90
2018-01-30T13:43:44.649Z,6.90
2018-01-30T13:46:11.256Z,6.90
2018-01-30T13:48:41.776Z,6.80
2018-01-30T13:51:15.196Z,6.80
2018-01-30T13:53:42.462Z,6.80
2018-01-30T13:56:09.449Z,6.80
2018-01-30T13:58:36.051Z,6.80
2018-01-30T14:01:02.670Z,6.80
2018-01-30T14:03:29.828Z,6.80
2018-01-30T14:05:57.812Z,6.80
2018-01-30T14:08:24.442Z,6.80
2018-01-30T14:10:51.504Z,6.80
2018-01-30T14:13:18.141Z,6.80
2018-01-30T14:15:45.124Z,6.80
2018-01-30T14:18:12.172Z,6.80
2018-01-30T14:20:38.797Z,6.70
2018-01-30T14:23:09.301Z,6.80
2018-01-30T14:25:35.953Z,6.80
2018-01-30T14:28:02.554Z,6.90
2018-01-30T14:30:29.610Z,6.90
2018-01-30T14:32:56.612Z,6.90
2018-01-30T14:35:23.183Z,6.90
2018-01-30T14:37:50.177Z,6.80
2018-01-30T14:40:16.838Z,6.80
2018-01-30T14:42:43.467Z,6.80
2018-01-30T14:45:10.144Z,6.70
2018-01-30T14:47:40.639Z,6.60
2018-01-30T14:50:07.224Z,6.60
2018-01-30T14:52:34.235Z,6.60
2018-01-30T14:55:00.851Z,6.70
2018-01-30T14:57:27.421Z,6.70
2018-01-30T14:59:53.998Z,6.60
2018-01-30T15:02:20.660Z,6.70
2018-01-30T15:04:47.220Z,6.70
2018-01-30T15:07:13.844Z,6.70
2018-01-30T15:09:40.525Z,6.60
2018-01-30T15:12:07.531Z,6.60
2018-01-30T15:14:34.203Z,6.60
2018-01-30T15:17:00.880Z,6.60
2018-01-30T15:19:27.472Z,6.70
2018-01-30T15:21:54.127Z,6.70
2018-01-30T15:24:20.809Z,6.70
2018-01-30T15:27:00.758Z,6.70
2018-01-30T15:29:27.736Z,6.70
2018-01-30T15:31:54.335Z,6.70
2018-01-30T15:34:20.898Z,6.70
2018-01-30T15:36:47.525Z,6.70
2018-01-30T15:39:14.109Z,6.70
2018-01-30T15:41:41.107Z,6.80
2018-01-30T15:44:07.702Z,6.80
2018-01-30T15:46:34.694Z,6.80
2018-01-30T15:49:01.325Z,6.80
2018-01-30T15:51:28.004Z,6.80
2018-01-30T15:53:54.610Z,6.70
2018-01-30T15:56:21.240Z,6.70
2018-01-30T15:58:47.857Z,6.80
2018-01-30T16:01:14.492Z,6.70
2018-01-30T16:03:41.155Z,6.80
2018-01-30T16:06:07.758Z,6.80
2018-01-30T16:08:34.378Z,6.80
2018-01-30T16:11:01.004Z,6.80
2018-01-30T16:13:28.036Z,6.90
2018-01-30T16:15:54.619Z,6.90
2018-01-30T16:18:21.318Z,6.80
2018-01-30T16:20:47.957Z,6.80
2018-01-30T16:23:14.645Z,6.80
2018-01-30T16:25:41.351Z,6.80
2018-01-30T16:28:07.953Z,6.80
2018-01-30T16:30:34.672Z,6.80
2018-01-30T16:33:01.319Z,6.70
2018-01-30T16:35:27.965Z,6.70
2018-01-30T16:37:54.591Z,6.70
2018-01-30T16:40:21.293Z,6.60
2018-01-30T16:42:48.329Z,6.60
2018-01-30T16:45:15.303Z,6.60
2018-01-30T16:47:41.970Z,6.60
2018-01-30T16:50:08.547Z,6.60
2018-01-30T16:52:35.603Z,6.50
2018-01-30T16:55:02.629Z,6.50
2018-01-30T16:57:29.279Z,6.50
2018-01-30T16:59:55.851Z,6.40
2018-01-30T17:02:22.517Z,6.40
2018-01-30T17:04:49.117Z,6.40
2018-01-30T17:07:22.337Z,6.30
2018-01-30T17:09:48.982Z,6.30
2018-01-30T17:12:15.588Z,6.30
2018-01-30T17:14:42.865Z,6.20
2018-01-30T17:17:09.513Z,6.20
2018-01-30T17:19:36.124Z,6.20
2018-01-30T17:22:02.759Z,6.20
2018-01-30T17:24:30.182Z,6.10
2018-01-30T17:26:57.183Z,6.10
2018-01-30T17:29:24.151Z,6.00
2018-01-30T17:31:50.791Z,6.00
2018-01-30T17:34:17.465Z,5.90
2018-01-30T17:36:44.524Z,5.80
2018-01-30T17:39:11.530Z,5.80
2018-01-30T17:41:38.169Z,5.80
2018-01-30T17:44:06.083Z,5.80
2018-01-30T17:46:32.691Z,5.80
2018-01-30T17:48:59.684Z,5.80
2018-01-30T17:51:26.332Z,5.80
2018-01-30T17:53:52.957Z,5.70
2018-01-30T17:56:19.963Z,5.70
2018-01-30T17:58:46.563Z,5.70
2018-01-30T18:01:13.175Z,5.70
2018-01-30T18:03:39.828Z,5.60
2018-01-30T18:06:12.486Z,5.60
2018-01-30T18:08:41.165Z,5.50
2018-01-30T18:11:08.163Z,5.50
2018-01-30T18:13:34.816Z,5.40
2018-01-30T18:16:12.384Z,5.40
2018-01-30T18:18:42.976Z,5.50
2018-01-30T18:24:22.453Z,5.50
2018-01-30T18:26:49.131Z,5.40
2018-01-30T18:29:33.453Z,5.40
2018-01-30T18:32:00.070Z,5.40
2018-01-30T18:34:26.694Z,5.40
2018-01-30T18:36:53.347Z,5.40
2018-01-30T18:39:19.929Z,5.30
2018-01-30T18:41:46.567Z,5.40
2018-01-30T18:44:13.123Z,5.40
2018-01-30T18:46:39.824Z,5.30
2018-01-30T18:49:06.710Z,5.30
2018-01-30T18:51:33.716Z,5.30
2018-01-30T18:54:00.368Z,5.30
2018-01-30T18:56:27.008Z,5.30
2018-01-30T18:58:53.610Z,5.30
2018-01-30T19:01:20.209Z,5.30
2018-01-30T19:03:46.826Z,5.30
2018-01-30T19:06:24.779Z,5.20
2018-01-30T19:08:55.824Z,5.20
2018-01-30T19:11:22.507Z,5.20
2018-01-30T19:13:53.443Z,5.20
2018-01-30T19:16:20.199Z,5.20
2018-01-30T19:18:51.294Z,5.30
2018-01-30T19:21:17.913Z,5.30
2018-01-30T19:23:48.694Z,5.30
2018-01-30T19:26:15.671Z,5.20
2018-01-30T19:28:54.806Z,5.20
2018-01-30T19:31:21.526Z,5.20
2018-01-30T19:33:54.529Z,5.10
2018-01-30T19:36:24.354Z,5.10
2018-01-30T19:38:51.257Z,5.10
2018-01-30T19:41:17.888Z,5.00
2018-01-30T19:43:44.502Z,5.00
2018-01-30T19:46:36.075Z,5.00
2018-01-30T19:49:02.698Z,5.00
2018-01-30T19:51:29.599Z,4.90
2018-01-30T19:53:56.192Z,4.90
2018-01-30T19:56:22.788Z,4.80
2018-01-30T19:58:49.660Z,4.80
2018-01-30T20:01:16.325Z,4.80
2018-01-30T20:03:42.906Z,4.70
2018-01-30T20:06:09.928Z,4.70
2018-01-30T20:11:31.918Z,4.60
2018-01-30T20:13:58.521Z,4.70
2018-01-30T20:16:25.515Z,4.60
2018-01-30T20:18:52.170Z,4.60
2018-01-30T20:21:18.752Z,4.60
2018-01-30T20:23:45.420Z,4.50
2018-01-30T20:26:12.004Z,4.50
2018-01-30T20:28:39.016Z,4.60
2018-01-30T20:31:05.678Z,4.60
2018-01-30T20:33:35.750Z,4.50
2018-01-30T20:36:02.357Z,4.50
2018-01-30T20:38:29.774Z,4.60
2018-01-30T20:40:56.369Z,4.60
2018-01-30T20:43:22.951Z,4.60
2018-01-30T20:45:49.622Z,4.60
2018-01-30T20:48:16.701Z,4.60
2018-01-30T20:50:43.303Z,4.60
2018-01-30T20:53:10.397Z,4.60
2018-01-30T20:55:36.987Z,4.60
2018-01-30T20:58:04.008Z,4.60
2018-01-30T21:00:30.701Z,4.60
2018-01-30T21:02:57.266Z,4.60
2018-01-30T21:05:23.856Z,4.60
2018-01-30T21:07:50.851Z,4.60
2018-01-30T21:10:17.497Z,4.60
2018-01-30T21:12:44.373Z,4.60
2018-01-30T21:15:10.971Z,4.70
2018-01-30T21:17:37.610Z,4.70
2018-01-30T21:20:04.568Z,4.70
2018-01-30T21:22:31.176Z,4.70
2018-01-30T21:24:57.772Z,4.70
2018-01-30T21:27:24.388Z,4.70
2018-01-30T21:29:50.997Z,4.60
2018-01-30T21:32:17.592Z,4.60
2018-01-30T21:34:44.626Z,4.60
2018-01-30T21:37:11.239Z,4.60
2018-01-30T21:39:37.839Z,4.60
2018-01-30T21:42:04.503Z,4.60
2018-01-30T21:44:31.097Z,4.60
2018-01-30T21:46:58.095Z,4.60
2018-01-30T21:49:24.735Z,4.70
2018-01-30T21:51:51.313Z,4.70
2018-01-30T21:54:18.499Z,4.70
2018-01-30T21:56:44.954Z,4.70
2018-01-30T21:59:11.531Z,4.70
2018-01-30T22:01:38.545Z,4.60
2018-01-30T22:04:05.227Z,4.60
2018-01-30T22:06:32.227Z,4.60
2018-01-30T22:08:58.814Z,4.60
2018-01-30T22:11:25.894Z,4.60
2018-01-30T22:13:52.978Z,4.60
2018-01-30T22:16:19.538Z,4.60
2018-01-30T22:18:46.568Z,4.60
2018-01-30T22:21:24.415Z,4.60
2018-01-30T22:23:51.029Z,4.60
2018-01-30T22:26:18.017Z,4.60
2018-01-30T22:28:45.424Z,4.60
2018-01-30T22:31:11.576Z,4.60
2018-01-30T22:33:38.168Z,4.60
2018-01-30T22:36:04.745Z,4.60
2018-01-30T22:38:37.157Z,4.60
2018-01-30T22:41:03.726Z,4.70
2018-01-30T22:43:30.313Z,4.60
2018-01-30T22:45:57.205Z,4.60
